sensor_id;sensor_type;location;lat;lon;timestamp;pressure;altitude;pressure_sealevel;temperature;humidity
11343;BME280;5726;42.160;24.746;2023-06-22T00:01:27;99752.22;;;27.51;66.82
11343;BME280;5726;42.160;24.746;2023-06-22T00:03:52;99759.66;;;27.47;66.94
11343;BME280;5726;42.160;24.746;2023-06-22T00:06:18;99754.16;;;27.44;67.50
11343;BME280;5726;42.160;24.746;2023-06-22T00:08:43;99752.97;;;27.48;67.80
11343;BME280;5726;42.160;24.746;2023-06-22T00:11:09;99760.47;;;27.65;67.64
11343;BME280;5726;42.160;24.746;2023-06-22T00:13:34;99759.69;;;27.44;68.19
11343;BME280;5726;42.160;24.746;2023-06-22T00:16:00;99755.34;;;27.29;68.67
11343;BME280;5726;42.160;24.746;2023-06-22T00:18:25;99761.22;;;27.24;68.89
11343;BME280;5726;42.160;24.746;2023-06-22T00:20:56;99756.91;;;27.30;68.13
11343;BME280;5726;42.160;24.746;2023-06-22T00:23:23;99765.53;;;27.11;69.22
11343;BME280;5726;42.160;24.746;2023-06-22T00:25:49;99765.16;;;27.37;68.29
11343;BME280;5726;42.160;24.746;2023-06-22T00:28:15;99765.97;;;27.20;68.12
11343;BME280;5726;42.160;24.746;2023-06-22T00:30:40;99766.63;;;26.75;70.21
11343;BME280;5726;42.160;24.746;2023-06-22T00:33:06;99768.91;;;26.56;71.51
11343;BME280;5726;42.160;24.746;2023-06-22T00:35:33;99773.59;;;26.55;71.68
11343;BME280;5726;42.160;24.746;2023-06-22T00:37:59;99776.78;;;26.64;71.64
11343;BME280;5726;42.160;24.746;2023-06-22T00:40:31;99786.25;;;26.77;70.40
11343;BME280;5726;42.160;24.746;2023-06-22T00:42:57;99785.06;;;26.68;71.06
11343;BME280;5726;42.160;24.746;2023-06-22T00:45:23;99780.75;;;26.77;70.96
11343;BME280;5726;42.160;24.746;2023-06-22T00:47:50;99779.19;;;26.76;70.41
11343;BME280;5726;42.160;24.746;2023-06-22T00:50:19;99779.22;;;26.83;70.35
11343;BME280;5726;42.160;24.746;2023-06-22T00:52:49;99776.03;;;26.74;71.03
11343;BME280;5726;42.160;24.746;2023-06-22T00:55:16;99779.53;;;26.64;71.71
11343;BME280;5726;42.160;24.746;2023-06-22T00:57:45;99769.72;;;26.70;71.42
11343;BME280;5726;42.160;24.746;2023-06-22T01:00:11;99785.38;;;26.52;72.55
11343;BME280;5726;42.160;24.746;2023-06-22T01:02:44;99781.13;;;26.62;72.41
11343;BME280;5726;42.160;24.746;2023-06-22T01:05:18;99779.97;;;26.77;71.28
11343;BME280;5726;42.160;24.746;2023-06-22T01:08:00;99776.72;;;26.47;72.66
11343;BME280;5726;42.160;24.746;2023-06-22T01:10:50;99780.31;;;26.54;72.32
11343;BME280;5726;42.160;24.746;2023-06-22T01:13:30;99776.53;;;26.16;73.92
11343;BME280;5726;42.160;24.746;2023-06-22T01:18:29;99790.00;;;26.28;74.02
11343;BME280;5726;42.160;24.746;2023-06-22T01:20:56;99796.28;;;26.32;73.18
11343;BME280;5726;42.160;24.746;2023-06-22T01:31:10;99768.69;;;26.18;71.80
11343;BME280;5726;42.160;24.746;2023-06-22T01:33:41;99781.28;;;26.19;71.85
11343;BME280;5726;42.160;24.746;2023-06-22T01:36:08;99769.50;;;26.25;71.32
11343;BME280;5726;42.160;24.746;2023-06-22T01:38:34;99782.81;;;26.20;71.04
11343;BME280;5726;42.160;24.746;2023-06-22T01:41:01;99773.50;;;26.28;70.77
11343;BME280;5726;42.160;24.746;2023-06-22T01:43:28;99767.22;;;26.31;70.26
11343;BME280;5726;42.160;24.746;2023-06-22T01:45:55;99763.66;;;26.30;69.57
11343;BME280;5726;42.160;24.746;2023-06-22T01:48:22;99765.25;;;26.31;68.76
11343;BME280;5726;42.160;24.746;2023-06-22T01:50:48;99764.00;;;26.25;69.14
11343;BME280;5726;42.160;24.746;2023-06-22T01:53:13;99769.59;;;26.39;68.41
11343;BME280;5726;42.160;24.746;2023-06-22T01:55:39;99768.00;;;26.35;68.79
11343;BME280;5726;42.160;24.746;2023-06-22T01:58:04;99766.72;;;26.18;69.56
11343;BME280;5726;42.160;24.746;2023-06-22T02:00:33;99768.69;;;26.18;69.21
11343;BME280;5726;42.160;24.746;2023-06-22T02:03:04;99776.50;;;26.12;70.12
11343;BME280;5726;42.160;24.746;2023-06-22T02:05:35;99784.38;;;26.14;70.51
11343;BME280;5726;42.160;24.746;2023-06-22T02:08:08;99772.72;;;26.31;69.21
11343;BME280;5726;42.160;24.746;2023-06-22T02:10:35;99766.91;;;25.36;74.59
11343;BME280;5726;42.160;24.746;2023-06-22T02:13:04;99764.00;;;25.65;73.16
11343;BME280;5726;42.160;24.746;2023-06-22T02:15:30;99774.25;;;25.68;72.66
11343;BME280;5726;42.160;24.746;2023-06-22T02:17:56;99775.16;;;25.36;75.00
11343;BME280;5726;42.160;24.746;2023-06-22T02:20:23;99772.59;;;25.17;76.02
11343;BME280;5726;42.160;24.746;2023-06-22T02:22:49;99770.63;;;25.60;74.07
11343;BME280;5726;42.160;24.746;2023-06-22T02:25:14;99780.63;;;25.36;75.51
11343;BME280;5726;42.160;24.746;2023-06-22T02:27:40;99780.34;;;25.08;76.88
11343;BME280;5726;42.160;24.746;2023-06-22T02:30:09;99783.78;;;24.65;79.08
11343;BME280;5726;42.160;24.746;2023-06-22T02:32:35;99776.31;;;24.99;76.86
11343;BME280;5726;42.160;24.746;2023-06-22T02:35:01;99778.06;;;24.77;77.77
11343;BME280;5726;42.160;24.746;2023-06-22T02:37:32;99786.44;;;24.91;77.28
11343;BME280;5726;42.160;24.746;2023-06-22T02:39:58;99796.50;;;24.80;78.35
11343;BME280;5726;42.160;24.746;2023-06-22T02:42:23;99790.91;;;24.70;78.78
11343;BME280;5726;42.160;24.746;2023-06-22T02:44:48;99794.06;;;24.75;78.74
11343;BME280;5726;42.160;24.746;2023-06-22T02:47:14;99798.75;;;24.71;79.17
11343;BME280;5726;42.160;24.746;2023-06-22T02:49:39;99797.41;;;24.91;77.95
11343;BME280;5726;42.160;24.746;2023-06-22T02:52:05;99794.75;;;24.98;77.31
11343;BME280;5726;42.160;24.746;2023-06-22T02:54:31;99804.13;;;24.97;77.33
11343;BME280;5726;42.160;24.746;2023-06-22T02:56:56;99804.25;;;25.04;77.54
11343;BME280;5726;42.160;24.746;2023-06-22T02:59:22;99803.25;;;24.86;78.46
11343;BME280;5726;42.160;24.746;2023-06-22T03:01:50;99795.28;;;25.10;76.68
11343;BME280;5726;42.160;24.746;2023-06-22T03:04:16;99794.94;;;24.83;78.27
11343;BME280;5726;42.160;24.746;2023-06-22T03:06:41;99807.00;;;25.04;77.22
11343;BME280;5726;42.160;24.746;2023-06-22T03:09:07;99805.66;;;25.27;75.27
11343;BME280;5726;42.160;24.746;2023-06-22T03:11:33;99805.09;;;25.54;73.63
11343;BME280;5726;42.160;24.746;2023-06-22T03:14:00;99809.72;;;25.87;72.26
11343;BME280;5726;42.160;24.746;2023-06-22T03:16:26;99814.59;;;26.07;70.96
11343;BME280;5726;42.160;24.746;2023-06-22T03:18:52;99807.94;;;26.15;69.91
11343;BME280;5726;42.160;24.746;2023-06-22T03:21:22;99815.28;;;25.97;70.96
11343;BME280;5726;42.160;24.746;2023-06-22T03:23:48;99825.13;;;25.98;70.38
11343;BME280;5726;42.160;24.746;2023-06-22T03:26:16;99825.38;;;26.33;68.04
11343;BME280;5726;42.160;24.746;2023-06-22T03:28:42;99826.34;;;26.68;65.75
11343;BME280;5726;42.160;24.746;2023-06-22T03:31:08;99826.44;;;26.92;64.63
11343;BME280;5726;42.160;24.746;2023-06-22T03:33:33;99826.13;;;27.18;63.69
11343;BME280;5726;42.160;24.746;2023-06-22T03:35:59;99826.97;;;27.39;61.48
11343;BME280;5726;42.160;24.746;2023-06-22T03:38:24;99828.97;;;27.77;60.12
11343;BME280;5726;42.160;24.746;2023-06-22T03:40:50;99823.47;;;27.87;59.84
11343;BME280;5726;42.160;24.746;2023-06-22T03:43:15;99823.47;;;27.70;60.58
11343;BME280;5726;42.160;24.746;2023-06-22T03:45:40;99826.97;;;28.05;59.41
11343;BME280;5726;42.160;24.746;2023-06-22T03:48:06;99824.97;;;28.43;57.98
11343;BME280;5726;42.160;24.746;2023-06-22T03:50:31;99826.53;;;28.41;58.17
11343;BME280;5726;42.160;24.746;2023-06-22T03:52:57;99836.38;;;28.52;57.18
11343;BME280;5726;42.160;24.746;2023-06-22T03:55:22;99824.91;;;28.61;57.34
11343;BME280;5726;42.160;24.746;2023-06-22T03:57:47;99823.31;;;28.77;56.66
11343;BME280;5726;42.160;24.746;2023-06-22T04:00:13;99821.72;;;28.76;57.23
11343;BME280;5726;42.160;24.746;2023-06-22T04:02:41;99823.66;;;28.83;57.46
11343;BME280;5726;42.160;24.746;2023-06-22T04:05:08;99822.34;;;29.08;56.85
11343;BME280;5726;42.160;24.746;2023-06-22T04:07:33;99821.53;;;29.11;55.95
11343;BME280;5726;42.160;24.746;2023-06-22T04:09:59;99827.22;;;28.83;57.19
11343;BME280;5726;42.160;24.746;2023-06-22T04:12:26;99825.56;;;28.99;56.20
11343;BME280;5726;42.160;24.746;2023-06-22T04:14:51;99826.00;;;28.91;56.42
11343;BME280;5726;42.160;24.746;2023-06-22T04:17:16;99829.44;;;29.09;56.37
11343;BME280;5726;42.160;24.746;2023-06-22T04:19:43;99830.97;;;29.24;54.98
11343;BME280;5726;42.160;24.746;2023-06-22T04:22:08;99821.09;;;29.80;52.99
11343;BME280;5726;42.160;24.746;2023-06-22T04:24:33;99834.09;;;29.26;54.29
11343;BME280;5726;42.160;24.746;2023-06-22T04:26:59;99836.75;;;28.54;58.33
11343;BME280;5726;42.160;24.746;2023-06-22T04:29:29;99830.44;;;28.57;57.99
11343;BME280;5726;42.160;24.746;2023-06-22T04:31:58;99821.78;;;28.48;57.36
11343;BME280;5726;42.160;24.746;2023-06-22T04:34:28;99830.47;;;28.50;57.49
11343;BME280;5726;42.160;24.746;2023-06-22T04:36:54;99832.78;;;28.66;57.64
11343;BME280;5726;42.160;24.746;2023-06-22T04:39:20;99832.88;;;28.28;58.45
11343;BME280;5726;42.160;24.746;2023-06-22T04:41:45;99836.84;;;27.89;59.74
11343;BME280;5726;42.160;24.746;2023-06-22T04:46:38;99847.72;;;27.02;64.39
11343;BME280;5726;42.160;24.746;2023-06-22T04:49:07;99845.41;;;27.28;63.44
11343;BME280;5726;42.160;24.746;2023-06-22T04:51:44;99847.06;;;27.64;63.03
11343;BME280;5726;42.160;24.746;2023-06-22T04:54:10;99850.25;;;27.87;61.65
11343;BME280;5726;42.160;24.746;2023-06-22T04:56:35;99841.56;;;27.95;61.29
11343;BME280;5726;42.160;24.746;2023-06-22T04:59:01;99836.84;;;27.95;61.16
11343;BME280;5726;42.160;24.746;2023-06-22T05:01:29;99828.97;;;28.04;61.02
11343;BME280;5726;42.160;24.746;2023-06-22T05:03:56;99829.75;;;28.22;60.83
11343;BME280;5726;42.160;24.746;2023-06-22T05:06:23;99816.38;;;28.14;62.40
11343;BME280;5726;42.160;24.746;2023-06-22T05:08:55;99824.16;;;28.46;60.95
11343;BME280;5726;42.160;24.746;2023-06-22T05:11:25;99809.50;;;28.77;60.50
11343;BME280;5726;42.160;24.746;2023-06-22T05:13:50;99816.88;;;29.01;59.82
11343;BME280;5726;42.160;24.746;2023-06-22T05:16:16;99815.97;;;29.25;59.24
11343;BME280;5726;42.160;24.746;2023-06-22T05:18:41;99819.03;;;29.37;58.31
11343;BME280;5726;42.160;24.746;2023-06-22T05:21:08;99815.66;;;29.63;57.24
11343;BME280;5726;42.160;24.746;2023-06-22T05:23:34;99814.78;;;29.76;55.98
11343;BME280;5726;42.160;24.746;2023-06-22T05:25:59;99811.22;;;30.19;55.01
11343;BME280;5726;42.160;24.746;2023-06-22T05:28:25;99818.97;;;30.38;53.75
11343;BME280;5726;42.160;24.746;2023-06-22T05:30:50;99822.38;;;30.49;53.36
11343;BME280;5726;42.160;24.746;2023-06-22T05:33:16;99824.41;;;30.78;52.08
11343;BME280;5726;42.160;24.746;2023-06-22T05:35:41;99830.16;;;30.94;51.11
11343;BME280;5726;42.160;24.746;2023-06-22T05:38:07;99822.81;;;31.37;50.58
11343;BME280;5726;42.160;24.746;2023-06-22T05:40:33;99820.97;;;31.27;49.63
11343;BME280;5726;42.160;24.746;2023-06-22T05:42:58;99823.75;;;31.00;50.70
11343;BME280;5726;42.160;24.746;2023-06-22T05:45:25;99820.38;;;30.53;51.74
11343;BME280;5726;42.160;24.746;2023-06-22T05:47:51;99823.38;;;30.98;51.10
11343;BME280;5726;42.160;24.746;2023-06-22T05:50:16;99828.63;;;30.89;50.69
11343;BME280;5726;42.160;24.746;2023-06-22T05:52:42;99833.97;;;31.33;49.32
11343;BME280;5726;42.160;24.746;2023-06-22T05:55:07;99835.56;;;31.60;48.24
11343;BME280;5726;42.160;24.746;2023-06-22T05:57:33;99827.53;;;32.15;47.65
11343;BME280;5726;42.160;24.746;2023-06-22T05:59:58;99828.09;;;32.26;46.17
11343;BME280;5726;42.160;24.746;2023-06-22T06:02:24;99835.50;;;32.32;45.27
11343;BME280;5726;42.160;24.746;2023-06-22T06:04:50;99821.56;;;32.36;44.83
11343;BME280;5726;42.160;24.746;2023-06-22T06:07:18;99822.88;;;32.08;45.71
11343;BME280;5726;42.160;24.746;2023-06-22T06:09:43;99829.53;;;32.34;45.47
11343;BME280;5726;42.160;24.746;2023-06-22T06:12:09;99834.59;;;32.38;45.83
11343;BME280;5726;42.160;24.746;2023-06-22T06:14:34;99830.25;;;32.37;45.50
11343;BME280;5726;42.160;24.746;2023-06-22T06:16:59;99834.28;;;32.56;45.02
11343;BME280;5726;42.160;24.746;2023-06-22T06:19:25;99828.59;;;32.21;43.92
11343;BME280;5726;42.160;24.746;2023-06-22T06:21:50;99824.81;;;31.36;46.68
11343;BME280;5726;42.160;24.746;2023-06-22T06:24:16;99823.31;;;31.32;47.34
11343;BME280;5726;42.160;24.746;2023-06-22T06:26:41;99813.59;;;31.46;46.76
11343;BME280;5726;42.160;24.746;2023-06-22T06:29:07;99823.84;;;31.49;47.12
11343;BME280;5726;42.160;24.746;2023-06-22T06:31:32;99823.09;;;31.72;46.19
11343;BME280;5726;42.160;24.746;2023-06-22T06:33:58;99821.53;;;31.44;47.08
11343;BME280;5726;42.160;24.746;2023-06-22T06:36:23;99822.19;;;31.78;47.06
11343;BME280;5726;42.160;24.746;2023-06-22T06:38:49;99822.66;;;32.19;46.39
11343;BME280;5726;42.160;24.746;2023-06-22T06:41:15;99811.16;;;32.39;45.39
11343;BME280;5726;42.160;24.746;2023-06-22T06:43:41;99818.75;;;32.58;45.66
11343;BME280;5726;42.160;24.746;2023-06-22T06:46:08;99811.84;;;32.66;45.10
11343;BME280;5726;42.160;24.746;2023-06-22T06:48:34;99814.63;;;32.66;44.44
11343;BME280;5726;42.160;24.746;2023-06-22T06:50:59;99811.78;;;32.89;44.28
11343;BME280;5726;42.160;24.746;2023-06-22T06:53:25;99805.78;;;33.10;43.98
11343;BME280;5726;42.160;24.746;2023-06-22T06:55:50;99816.94;;;33.41;44.35
11343;BME280;5726;42.160;24.746;2023-06-22T06:58:15;99823.47;;;33.35;43.24
11343;BME280;5726;42.160;24.746;2023-06-22T07:00:41;99812.13;;;33.10;44.29
11343;BME280;5726;42.160;24.746;2023-06-22T07:03:08;99811.13;;;32.82;45.21
11343;BME280;5726;42.160;24.746;2023-06-22T07:05:34;99808.13;;;33.11;43.98
11343;BME280;5726;42.160;24.746;2023-06-22T07:08:00;99808.03;;;33.50;43.69
11343;BME280;5726;42.160;24.746;2023-06-22T07:10:26;99816.47;;;33.78;42.58
11343;BME280;5726;42.160;24.746;2023-06-22T07:12:52;99805.31;;;33.46;43.18
11343;BME280;5726;42.160;24.746;2023-06-22T07:15:17;99814.81;;;33.14;43.48
11343;BME280;5726;42.160;24.746;2023-06-22T07:17:43;99812.44;;;32.77;44.11
11343;BME280;5726;42.160;24.746;2023-06-22T07:20:09;99820.59;;;32.45;44.99
11343;BME280;5726;42.160;24.746;2023-06-22T07:22:38;99815.25;;;32.54;44.57
11343;BME280;5726;42.160;24.746;2023-06-22T07:25:04;99812.66;;;32.47;43.82
11343;BME280;5726;42.160;24.746;2023-06-22T07:27:38;99810.09;;;32.56;43.62
11343;BME280;5726;42.160;24.746;2023-06-22T07:30:05;99808.38;;;32.62;43.99
11343;BME280;5726;42.160;24.746;2023-06-22T07:32:31;99829.56;;;32.72;43.59
11343;BME280;5726;42.160;24.746;2023-06-22T07:34:56;99824.81;;;32.73;43.75
11343;BME280;5726;42.160;24.746;2023-06-22T07:37:22;99822.81;;;32.92;43.63
11343;BME280;5726;42.160;24.746;2023-06-22T07:39:47;99819.06;;;33.02;43.56
11343;BME280;5726;42.160;24.746;2023-06-22T07:42:13;99814.69;;;33.36;42.21
11343;BME280;5726;42.160;24.746;2023-06-22T07:44:44;99820.22;;;33.56;42.76
11343;BME280;5726;42.160;24.746;2023-06-22T07:47:09;99816.44;;;33.46;42.65
11343;BME280;5726;42.160;24.746;2023-06-22T07:49:34;99818.81;;;33.64;42.45
11343;BME280;5726;42.160;24.746;2023-06-22T07:52:00;99823.75;;;33.88;40.96
11343;BME280;5726;42.160;24.746;2023-06-22T07:54:26;99812.38;;;33.98;40.55
11343;BME280;5726;42.160;24.746;2023-06-22T07:56:51;99813.69;;;34.10;39.95
11343;BME280;5726;42.160;24.746;2023-06-22T07:59:18;99811.75;;;33.91;39.92
11343;BME280;5726;42.160;24.746;2023-06-22T08:01:44;99808.91;;;33.47;42.19
11343;BME280;5726;42.160;24.746;2023-06-22T08:04:09;99814.38;;;33.82;42.48
11343;BME280;5726;42.160;24.746;2023-06-22T08:06:34;99803.41;;;34.07;39.49
11343;BME280;5726;42.160;24.746;2023-06-22T08:09:00;99805.50;;;33.71;40.23
11343;BME280;5726;42.160;24.746;2023-06-22T08:11:25;99802.91;;;33.64;40.89
11343;BME280;5726;42.160;24.746;2023-06-22T08:13:51;99797.16;;;34.03;41.41
11343;BME280;5726;42.160;24.746;2023-06-22T08:16:17;99786.03;;;33.87;40.74
11343;BME280;5726;42.160;24.746;2023-06-22T08:18:43;99790.69;;;34.06;40.95
11343;BME280;5726;42.160;24.746;2023-06-22T08:21:08;99787.72;;;34.29;40.18
11343;BME280;5726;42.160;24.746;2023-06-22T08:23:33;99789.47;;;34.23;39.08
11343;BME280;5726;42.160;24.746;2023-06-22T08:26:00;99788.28;;;34.36;39.00
11343;BME280;5726;42.160;24.746;2023-06-22T08:28:25;99780.03;;;34.61;37.80
11343;BME280;5726;42.160;24.746;2023-06-22T08:30:50;99783.69;;;34.58;37.61
11343;BME280;5726;42.160;24.746;2023-06-22T08:33:16;99775.34;;;34.58;37.06
11343;BME280;5726;42.160;24.746;2023-06-22T08:35:41;99776.19;;;34.42;36.86
11343;BME280;5726;42.160;24.746;2023-06-22T08:38:07;99777.16;;;34.36;36.88
11343;BME280;5726;42.160;24.746;2023-06-22T08:40:34;99773.69;;;34.73;37.40
11343;BME280;5726;42.160;24.746;2023-06-22T08:42:59;99773.91;;;34.94;36.62
11343;BME280;5726;42.160;24.746;2023-06-22T08:45:24;99765.09;;;35.08;36.78
11343;BME280;5726;42.160;24.746;2023-06-22T08:47:50;99766.53;;;35.25;35.27
11343;BME280;5726;42.160;24.746;2023-06-22T08:50:15;99768.19;;;35.10;35.62
11343;BME280;5726;42.160;24.746;2023-06-22T08:52:41;99774.13;;;35.24;34.06
11343;BME280;5726;42.160;24.746;2023-06-22T08:55:07;99771.34;;;35.36;34.30
11343;BME280;5726;42.160;24.746;2023-06-22T08:57:33;99771.88;;;35.56;34.07
11343;BME280;5726;42.160;24.746;2023-06-22T08:59:59;99774.34;;;35.54;34.41
11343;BME280;5726;42.160;24.746;2023-06-22T09:02:25;99775.47;;;35.44;34.90
11343;BME280;5726;42.160;24.746;2023-06-22T09:04:51;99765.66;;;35.40;34.06
11343;BME280;5726;42.160;24.746;2023-06-22T09:07:21;99767.53;;;35.31;34.10
11343;BME280;5726;42.160;24.746;2023-06-22T09:09:48;99775.91;;;35.55;33.51
11343;BME280;5726;42.160;24.746;2023-06-22T09:12:14;99770.28;;;35.68;33.73
11343;BME280;5726;42.160;24.746;2023-06-22T09:14:39;99758.81;;;35.53;33.43
11343;BME280;5726;42.160;24.746;2023-06-22T09:17:05;99769.84;;;35.69;32.66
11343;BME280;5726;42.160;24.746;2023-06-22T09:19:30;99763.81;;;35.83;32.71
11343;BME280;5726;42.160;24.746;2023-06-22T09:21:56;99770.72;;;35.91;31.90
11343;BME280;5726;42.160;24.746;2023-06-22T09:24:21;99762.50;;;36.09;31.51
11343;BME280;5726;42.160;24.746;2023-06-22T09:26:47;99767.84;;;35.82;33.14
11343;BME280;5726;42.160;24.746;2023-06-22T09:29:12;99762.28;;;35.57;33.84
11343;BME280;5726;42.160;24.746;2023-06-22T09:31:37;99765.38;;;35.59;33.77
11343;BME280;5726;42.160;24.746;2023-06-22T09:34:03;99758.88;;;35.87;32.53
11343;BME280;5726;42.160;24.746;2023-06-22T09:36:29;99757.59;;;35.54;32.18
11343;BME280;5726;42.160;24.746;2023-06-22T09:38:55;99752.44;;;35.65;31.78
11343;BME280;5726;42.160;24.746;2023-06-22T09:41:23;99752.72;;;35.92;31.31
11343;BME280;5726;42.160;24.746;2023-06-22T09:43:49;99746.69;;;35.93;30.30
11343;BME280;5726;42.160;24.746;2023-06-22T09:46:17;99750.72;;;35.92;30.05
11343;BME280;5726;42.160;24.746;2023-06-22T09:48:43;99752.09;;;35.63;29.85
11343;BME280;5726;42.160;24.746;2023-06-22T09:51:09;99750.28;;;35.35;30.67
11343;BME280;5726;42.160;24.746;2023-06-22T09:53:34;99748.88;;;35.28;30.43
11343;BME280;5726;42.160;24.746;2023-06-22T09:56:03;99753.91;;;35.20;30.38
11343;BME280;5726;42.160;24.746;2023-06-22T09:58:29;99747.59;;;34.67;31.17
11343;BME280;5726;42.160;24.746;2023-06-22T10:00:54;99750.03;;;34.93;31.25
11343;BME280;5726;42.160;24.746;2023-06-22T10:03:20;99743.03;;;34.60;32.15
11343;BME280;5726;42.160;24.746;2023-06-22T10:05:46;99734.03;;;34.69;33.06
11343;BME280;5726;42.160;24.746;2023-06-22T10:08:11;99744.59;;;34.61;32.68
11343;BME280;5726;42.160;24.746;2023-06-22T10:10:37;99730.34;;;34.72;31.78
11343;BME280;5726;42.160;24.746;2023-06-22T10:13:08;99730.44;;;34.56;31.65
11343;BME280;5726;42.160;24.746;2023-06-22T10:15:34;99738.59;;;34.34;32.32
11343;BME280;5726;42.160;24.746;2023-06-22T10:17:59;99727.75;;;34.52;32.44
11343;BME280;5726;42.160;24.746;2023-06-22T10:20:25;99726.97;;;34.52;32.45
11343;BME280;5726;42.160;24.746;2023-06-22T10:22:51;99721.81;;;34.50;31.93
11343;BME280;5726;42.160;24.746;2023-06-22T10:25:17;99728.84;;;34.55;31.58
11343;BME280;5726;42.160;24.746;2023-06-22T10:27:42;99716.16;;;34.54;32.32
11343;BME280;5726;42.160;24.746;2023-06-22T10:30:12;99715.50;;;34.22;31.64
11343;BME280;5726;42.160;24.746;2023-06-22T10:32:38;99722.19;;;34.24;32.61
11343;BME280;5726;42.160;24.746;2023-06-22T10:35:05;99718.31;;;34.34;32.20
11343;BME280;5726;42.160;24.746;2023-06-22T10:37:30;99719.34;;;34.12;32.23
11343;BME280;5726;42.160;24.746;2023-06-22T10:39:56;99703.91;;;34.23;32.16
11343;BME280;5726;42.160;24.746;2023-06-22T10:42:22;99702.72;;;33.96;33.14
11343;BME280;5726;42.160;24.746;2023-06-22T10:44:47;99698.38;;;34.07;33.50
11343;BME280;5726;42.160;24.746;2023-06-22T10:47:12;99693.22;;;34.22;32.61
11343;BME280;5726;42.160;24.746;2023-06-22T10:49:38;99691.34;;;34.31;32.41
11343;BME280;5726;42.160;24.746;2023-06-22T10:52:08;99690.47;;;34.06;33.04
11343;BME280;5726;42.160;24.746;2023-06-22T10:54:35;99678.88;;;34.35;32.28
11343;BME280;5726;42.160;24.746;2023-06-22T10:57:01;99673.59;;;34.66;31.36
11343;BME280;5726;42.160;24.746;2023-06-22T10:59:27;99683.06;;;34.68;32.19
11343;BME280;5726;42.160;24.746;2023-06-22T11:01:55;99689.50;;;34.40;31.33
11343;BME280;5726;42.160;24.746;2023-06-22T11:04:20;99680.41;;;34.24;32.05
11343;BME280;5726;42.160;24.746;2023-06-22T11:06:48;99671.63;;;34.26;32.79
11343;BME280;5726;42.160;24.746;2023-06-22T11:09:13;99668.69;;;34.57;32.24
11343;BME280;5726;42.160;24.746;2023-06-22T11:11:43;99683.72;;;34.47;30.83
11343;BME280;5726;42.160;24.746;2023-06-22T11:14:09;99671.69;;;34.50;31.74
11343;BME280;5726;42.160;24.746;2023-06-22T11:16:35;99678.53;;;34.33;31.43
11343;BME280;5726;42.160;24.746;2023-06-22T11:19:00;99678.13;;;34.47;31.92
11343;BME280;5726;42.160;24.746;2023-06-22T11:21:26;99675.06;;;34.30;32.71
11343;BME280;5726;42.160;24.746;2023-06-22T11:23:51;99678.06;;;34.23;31.82
11343;BME280;5726;42.160;24.746;2023-06-22T11:26:17;99677.94;;;34.54;32.52
11343;BME280;5726;42.160;24.746;2023-06-22T11:28:42;99674.72;;;34.68;32.14
11343;BME280;5726;42.160;24.746;2023-06-22T11:31:07;99670.03;;;34.78;32.44
11343;BME280;5726;42.160;24.746;2023-06-22T11:33:33;99675.50;;;34.81;32.52
11343;BME280;5726;42.160;24.746;2023-06-22T11:35:58;99678.22;;;34.97;32.64
11343;BME280;5726;42.160;24.746;2023-06-22T11:38:25;99666.94;;;34.88;32.22
11343;BME280;5726;42.160;24.746;2023-06-22T11:40:50;99676.84;;;34.64;31.82
11343;BME280;5726;42.160;24.746;2023-06-22T11:43:16;99671.34;;;34.48;32.36
11343;BME280;5726;42.160;24.746;2023-06-22T11:45:41;99664.00;;;34.42;32.83
11343;BME280;5726;42.160;24.746;2023-06-22T11:48:06;99666.34;;;34.43;32.90
11343;BME280;5726;42.160;24.746;2023-06-22T11:50:32;99671.91;;;34.43;32.93
11343;BME280;5726;42.160;24.746;2023-06-22T11:53:02;99668.25;;;34.46;32.37
11343;BME280;5726;42.160;24.746;2023-06-22T11:55:28;99674.59;;;34.47;33.02
11343;BME280;5726;42.160;24.746;2023-06-22T11:57:55;99670.63;;;34.32;32.29
11343;BME280;5726;42.160;24.746;2023-06-22T12:00:21;99668.25;;;34.71;32.04
11343;BME280;5726;42.160;24.746;2023-06-22T12:02:49;99665.34;;;34.62;32.42
11343;BME280;5726;42.160;24.746;2023-06-22T12:05:16;99656.78;;;34.57;33.08
11343;BME280;5726;42.160;24.746;2023-06-22T12:07:42;99652.09;;;34.66;33.17
11343;BME280;5726;42.160;24.746;2023-06-22T12:10:07;99657.44;;;34.98;33.08
11343;BME280;5726;42.160;24.746;2023-06-22T12:12:33;99651.44;;;34.99;32.67
11343;BME280;5726;42.160;24.746;2023-06-22T12:14:58;99665.03;;;35.10;32.56
11343;BME280;5726;42.160;24.746;2023-06-22T12:17:28;99664.91;;;34.76;32.43
11343;BME280;5726;42.160;24.746;2023-06-22T12:19:53;99655.19;;;34.68;32.70
11343;BME280;5726;42.160;24.746;2023-06-22T12:22:19;99653.44;;;34.49;33.00
11343;BME280;5726;42.160;24.746;2023-06-22T12:24:44;99644.50;;;34.54;32.85
11343;BME280;5726;42.160;24.746;2023-06-22T12:27:10;99635.03;;;34.77;33.60
11343;BME280;5726;42.160;24.746;2023-06-22T12:29:35;99630.47;;;34.70;33.68
11343;BME280;5726;42.160;24.746;2023-06-22T12:32:00;99634.06;;;34.95;33.01
11343;BME280;5726;42.160;24.746;2023-06-22T12:34:26;99631.88;;;35.24;32.78
11343;BME280;5726;42.160;24.746;2023-06-22T12:36:51;99630.44;;;35.20;32.53
11343;BME280;5726;42.160;24.746;2023-06-22T12:39:19;99626.66;;;35.14;33.23
11343;BME280;5726;42.160;24.746;2023-06-22T12:41:45;99640.50;;;35.05;32.04
11343;BME280;5726;42.160;24.746;2023-06-22T12:44:10;99624.88;;;35.07;31.92
11343;BME280;5726;42.160;24.746;2023-06-22T12:46:36;99622.31;;;34.63;33.63
11343;BME280;5726;42.160;24.746;2023-06-22T12:49:04;99616.75;;;34.76;32.86
11343;BME280;5726;42.160;24.746;2023-06-22T12:51:30;99613.19;;;34.75;33.06
11343;BME280;5726;42.160;24.746;2023-06-22T12:53:56;99623.09;;;34.51;33.42
11343;BME280;5726;42.160;24.746;2023-06-22T12:56:22;99616.13;;;34.31;32.50
11343;BME280;5726;42.160;24.746;2023-06-22T12:58:47;99618.09;;;34.06;34.01
11343;BME280;5726;42.160;24.746;2023-06-22T13:01:13;99612.22;;;34.16;33.58
11343;BME280;5726;42.160;24.746;2023-06-22T13:03:38;99618.72;;;34.26;32.56
11343;BME280;5726;42.160;24.746;2023-06-22T13:06:04;99618.81;;;34.22;33.63
11343;BME280;5726;42.160;24.746;2023-06-22T13:08:29;99619.44;;;34.54;33.14